sensor_id;sensor_type;location;lat;lon;timestamp;temperature;humidity
814;DHT22;389;48.710;9.392;2024-02-26T00:01:10;9.40;87.10
814;DHT22;389;48.710;9.392;2024-02-26T00:03:36;9.30;86.90
814;DHT22;389;48.710;9.392;2024-02-26T00:06:02;9.20;86.90
814;DHT22;389;48.710;9.392;2024-02-26T00:08:28;9.20;87.10
814;DHT22;389;48.710;9.392;2024-02-26T00:10:54;9.20;87.10
814;DHT22;389;48.710;9.392;2024-02-26T00:13:19;9.20;87.10
814;DHT22;389;48.710;9.392;2024-02-26T00:15:46;9.20;87.10
814;DHT22;389;48.710;9.392;2024-02-26T00:18:11;9.20;87.10
814;DHT22;389;48.710;9.392;2024-02-26T00:20:37;9.20;87.00
814;DHT22;389;48.710;9.392;2024-02-26T00:23:02;9.20;86.80
814;DHT22;389;48.710;9.392;2024-02-26T00:25:28;9.20;86.60
814;DHT22;389;48.710;9.392;2024-02-26T00:27:53;9.20;86.50
814;DHT22;389;48.710;9.392;2024-02-26T00:30:19;9.10;86.40
814;DHT22;389;48.710;9.392;2024-02-26T00:32:44;9.10;86.70
814;DHT22;389;48.710;9.392;2024-02-26T00:35:10;9.00;86.80
814;DHT22;389;48.710;9.392;2024-02-26T00:37:36;9.00;87.00
814;DHT22;389;48.710;9.392;2024-02-26T00:40:01;9.20;87.30
814;DHT22;389;48.710;9.392;2024-02-26T00:42:27;9.00;87.70
814;DHT22;389;48.710;9.392;2024-02-26T00:44:52;9.10;87.80
814;DHT22;389;48.710;9.392;2024-02-26T00:47:18;9.00;87.80
814;DHT22;389;48.710;9.392;2024-02-26T00:49:44;9.00;88.00
814;DHT22;389;48.710;9.392;2024-02-26T00:52:09;8.90;88.40
814;DHT22;389;48.710;9.392;2024-02-26T00:54:35;8.80;88.70
814;DHT22;389;48.710;9.392;2024-02-26T00:57:00;8.80;89.30
814;DHT22;389;48.710;9.392;2024-02-26T00:59:26;8.80;89.30
814;DHT22;389;48.710;9.392;2024-02-26T01:01:51;8.80;89.40
814;DHT22;389;48.710;9.392;2024-02-26T01:04:17;8.70;89.40
814;DHT22;389;48.710;9.392;2024-02-26T01:06:42;8.70;89.40
814;DHT22;389;48.710;9.392;2024-02-26T01:09:08;8.70;89.40
814;DHT22;389;48.710;9.392;2024-02-26T01:11:33;8.70;89.50
814;DHT22;389;48.710;9.392;2024-02-26T01:13:59;8.70;90.00
814;DHT22;389;48.710;9.392;2024-02-26T01:16:24;8.60;88.40
814;DHT22;389;48.710;9.392;2024-02-26T01:18:50;8.60;88.20
814;DHT22;389;48.710;9.392;2024-02-26T01:21:15;8.60;87.90
814;DHT22;389;48.710;9.392;2024-02-26T01:23:41;8.60;87.50
814;DHT22;389;48.710;9.392;2024-02-26T01:26:07;8.70;87.50
814;DHT22;389;48.710;9.392;2024-02-26T01:28:33;8.70;87.70
814;DHT22;389;48.710;9.392;2024-02-26T01:30:58;8.80;87.90
814;DHT22;389;48.710;9.392;2024-02-26T01:33:26;8.70;87.30
814;DHT22;389;48.710;9.392;2024-02-26T01:35:51;8.70;86.90
814;DHT22;389;48.710;9.392;2024-02-26T01:38:19;8.80;86.70
814;DHT22;389;48.710;9.392;2024-02-26T01:40:45;8.70;86.30
814;DHT22;389;48.710;9.392;2024-02-26T01:43:10;8.80;86.10
814;DHT22;389;48.710;9.392;2024-02-26T01:45:36;8.80;86.00
814;DHT22;389;48.710;9.392;2024-02-26T01:48:01;8.80;85.90
814;DHT22;389;48.710;9.392;2024-02-26T01:50:27;8.80;85.60
814;DHT22;389;48.710;9.392;2024-02-26T01:52:54;8.80;85.60
814;DHT22;389;48.710;9.392;2024-02-26T01:55:20;8.80;85.60
814;DHT22;389;48.710;9.392;2024-02-26T01:57:49;8.80;85.70
814;DHT22;389;48.710;9.392;2024-02-26T02:00:18;8.90;85.80
814;DHT22;389;48.710;9.392;2024-02-26T02:02:44;8.90;85.80
814;DHT22;389;48.710;9.392;2024-02-26T02:05:12;8.90;86.00
814;DHT22;389;48.710;9.392;2024-02-26T02:07:40;8.90;86.00
814;DHT22;389;48.710;9.392;2024-02-26T02:10:06;8.90;86.00
814;DHT22;389;48.710;9.392;2024-02-26T02:12:32;8.90;85.90
814;DHT22;389;48.710;9.392;2024-02-26T02:15:00;9.00;86.10
814;DHT22;389;48.710;9.392;2024-02-26T02:17:26;8.90;86.50
814;DHT22;389;48.710;9.392;2024-02-26T02:19:53;8.90;86.80
814;DHT22;389;48.710;9.392;2024-02-26T02:22:18;8.90;87.00
814;DHT22;389;48.710;9.392;2024-02-26T02:24:45;9.00;87.20
814;DHT22;389;48.710;9.392;2024-02-26T02:27:10;9.00;87.00
814;DHT22;389;48.710;9.392;2024-02-26T02:29:36;9.00;87.00
814;DHT22;389;48.710;9.392;2024-02-26T02:32:03;8.90;86.90
814;DHT22;389;48.710;9.392;2024-02-26T02:34:30;9.10;87.50
814;DHT22;389;48.710;9.392;2024-02-26T02:36:57;8.80;87.50
814;DHT22;389;48.710;9.392;2024-02-26T02:39:22;8.80;88.00
814;DHT22;389;48.710;9.392;2024-02-26T02:41:48;8.80;88.50
814;DHT22;389;48.710;9.392;2024-02-26T02:44:13;8.90;89.60
814;DHT22;389;48.710;9.392;2024-02-26T02:46:39;9.00;89.50
814;DHT22;389;48.710;9.392;2024-02-26T02:49:08;8.90;89.40
814;DHT22;389;48.710;9.392;2024-02-26T02:51:35;8.90;89.40
814;DHT22;389;48.710;9.392;2024-02-26T02:54:00;8.90;89.60
814;DHT22;389;48.710;9.392;2024-02-26T02:56:26;8.80;90.10
814;DHT22;389;48.710;9.392;2024-02-26T02:58:51;8.70;90.10
814;DHT22;389;48.710;9.392;2024-02-26T03:01:17;8.80;90.00
814;DHT22;389;48.710;9.392;2024-02-26T03:03:42;8.80;90.00
814;DHT22;389;48.710;9.392;2024-02-26T03:06:08;8.80;89.90
814;DHT22;389;48.710;9.392;2024-02-26T03:08:33;8.90;89.30
814;DHT22;389;48.710;9.392;2024-02-26T03:11:03;8.80;89.40
814;DHT22;389;48.710;9.392;2024-02-26T03:13:29;8.70;88.70
814;DHT22;389;48.710;9.392;2024-02-26T03:15:54;8.80;89.00
814;DHT22;389;48.710;9.392;2024-02-26T03:18:20;8.80;89.20
814;DHT22;389;48.710;9.392;2024-02-26T03:20:46;8.80;89.40
814;DHT22;389;48.710;9.392;2024-02-26T03:23:11;8.80;89.50
814;DHT22;389;48.710;9.392;2024-02-26T03:25:44;8.80;89.50
814;DHT22;389;48.710;9.392;2024-02-26T03:28:11;8.80;89.20
814;DHT22;389;48.710;9.392;2024-02-26T03:30:38;8.80;89.00
814;DHT22;389;48.710;9.392;2024-02-26T03:33:03;8.80;88.90
814;DHT22;389;48.710;9.392;2024-02-26T03:35:29;8.80;88.90
814;DHT22;389;48.710;9.392;2024-02-26T03:37:54;8.80;89.30
814;DHT22;389;48.710;9.392;2024-02-26T03:40:20;8.80;89.50
814;DHT22;389;48.710;9.392;2024-02-26T03:42:46;9.00;90.00
814;DHT22;389;48.710;9.392;2024-02-26T03:45:11;8.80;89.80
814;DHT22;389;48.710;9.392;2024-02-26T03:47:40;8.80;89.90
814;DHT22;389;48.710;9.392;2024-02-26T03:50:06;8.80;90.00
814;DHT22;389;48.710;9.392;2024-02-26T03:52:33;8.80;90.20
814;DHT22;389;48.710;9.392;2024-02-26T03:54:59;8.70;90.30
814;DHT22;389;48.710;9.392;2024-02-26T03:57:25;8.70;90.60
814;DHT22;389;48.710;9.392;2024-02-26T03:59:50;8.70;91.10
814;DHT22;389;48.710;9.392;2024-02-26T04:02:16;8.70;91.10
814;DHT22;389;48.710;9.392;2024-02-26T04:04:41;8.70;91.30
814;DHT22;389;48.710;9.392;2024-02-26T04:07:07;8.70;91.40
814;DHT22;389;48.710;9.392;2024-02-26T04:09:33;8.80;91.50
814;DHT22;389;48.710;9.392;2024-02-26T04:11:58;8.70;90.90
814;DHT22;389;48.710;9.392;2024-02-26T04:14:24;8.70;90.40
814;DHT22;389;48.710;9.392;2024-02-26T04:16:49;8.70;90.40
814;DHT22;389;48.710;9.392;2024-02-26T04:19:17;8.60;90.40
814;DHT22;389;48.710;9.392;2024-02-26T04:21:45;8.60;90.70
814;DHT22;389;48.710;9.392;2024-02-26T04:24:11;8.70;90.60
814;DHT22;389;48.710;9.392;2024-02-26T04:26:37;8.70;90.70
814;DHT22;389;48.710;9.392;2024-02-26T04:29:02;8.50;90.50
814;DHT22;389;48.710;9.392;2024-02-26T04:31:28;8.50;90.60
814;DHT22;389;48.710;9.392;2024-02-26T04:33:54;8.70;90.60
814;DHT22;389;48.710;9.392;2024-02-26T04:36:19;8.50;90.30
814;DHT22;389;48.710;9.392;2024-02-26T04:38:45;8.60;90.00
814;DHT22;389;48.710;9.392;2024-02-26T04:41:11;8.60;89.50
814;DHT22;389;48.710;9.392;2024-02-26T04:43:37;8.70;89.50
814;DHT22;389;48.710;9.392;2024-02-26T04:46:10;8.60;89.00
814;DHT22;389;48.710;9.392;2024-02-26T04:48:38;8.60;89.20
814;DHT22;389;48.710;9.392;2024-02-26T04:51:04;8.60;89.80
814;DHT22;389;48.710;9.392;2024-02-26T04:53:30;8.60;90.10
814;DHT22;389;48.710;9.392;2024-02-26T04:55:56;8.60;90.10
814;DHT22;389;48.710;9.392;2024-02-26T04:58:21;8.60;89.60
814;DHT22;389;48.710;9.392;2024-02-26T05:00:50;8.70;89.50
814;DHT22;389;48.710;9.392;2024-02-26T05:03:15;8.70;89.70
814;DHT22;389;48.710;9.392;2024-02-26T05:05:44;8.70;89.90
814;DHT22;389;48.710;9.392;2024-02-26T05:08:10;8.60;90.00
814;DHT22;389;48.710;9.392;2024-02-26T05:10:37;8.80;90.30
814;DHT22;389;48.710;9.392;2024-02-26T05:13:05;8.50;90.10
814;DHT22;389;48.710;9.392;2024-02-26T05:15:31;8.50;90.20
814;DHT22;389;48.710;9.392;2024-02-26T05:17:57;8.50;90.40
814;DHT22;389;48.710;9.392;2024-02-26T05:20:23;8.50;90.40
814;DHT22;389;48.710;9.392;2024-02-26T05:22:49;8.60;90.40
814;DHT22;389;48.710;9.392;2024-02-26T05:25:15;8.50;90.30
814;DHT22;389;48.710;9.392;2024-02-26T05:27:41;8.50;90.20
814;DHT22;389;48.710;9.392;2024-02-26T05:30:07;8.60;90.20
814;DHT22;389;48.710;9.392;2024-02-26T05:32:33;8.60;90.20
814;DHT22;389;48.710;9.392;2024-02-26T05:34:58;8.50;90.30
814;DHT22;389;48.710;9.392;2024-02-26T05:37:24;8.60;90.10
814;DHT22;389;48.710;9.392;2024-02-26T05:39:50;8.60;90.10
814;DHT22;389;48.710;9.392;2024-02-26T05:42:15;8.60;90.20
814;DHT22;389;48.710;9.392;2024-02-26T05:44:41;8.60;90.40
814;DHT22;389;48.710;9.392;2024-02-26T05:47:06;8.60;90.70
814;DHT22;389;48.710;9.392;2024-02-26T05:49:32;8.70;90.90
814;DHT22;389;48.710;9.392;2024-02-26T05:51:58;8.60;91.00
814;DHT22;389;48.710;9.392;2024-02-26T05:54:24;8.60;91.20
814;DHT22;389;48.710;9.392;2024-02-26T05:56:49;8.60;91.60
814;DHT22;389;48.710;9.392;2024-02-26T05:59:15;8.50;91.70
814;DHT22;389;48.710;9.392;2024-02-26T06:01:41;8.60;91.70
814;DHT22;389;48.710;9.392;2024-02-26T06:04:07;8.60;91.70
814;DHT22;389;48.710;9.392;2024-02-26T06:06:32;8.60;91.70
814;DHT22;389;48.710;9.392;2024-02-26T06:08:58;8.60;91.70
814;DHT22;389;48.710;9.392;2024-02-26T06:11:23;8.80;92.00
814;DHT22;389;48.710;9.392;2024-02-26T06:13:49;8.60;91.90
814;DHT22;389;48.710;9.392;2024-02-26T06:16:15;8.60;91.80
814;DHT22;389;48.710;9.392;2024-02-26T06:18:41;8.60;91.80
814;DHT22;389;48.710;9.392;2024-02-26T06:21:09;8.60;91.80
814;DHT22;389;48.710;9.392;2024-02-26T06:23:36;8.50;91.80
814;DHT22;389;48.710;9.392;2024-02-26T06:26:01;8.40;91.90
814;DHT22;389;48.710;9.392;2024-02-26T06:28:27;8.40;92.30
814;DHT22;389;48.710;9.392;2024-02-26T06:30:55;8.30;92.10
814;DHT22;389;48.710;9.392;2024-02-26T06:33:21;8.30;92.40
814;DHT22;389;48.710;9.392;2024-02-26T06:35:46;8.30;92.50
814;DHT22;389;48.710;9.392;2024-02-26T06:38:12;8.30;92.30
814;DHT22;389;48.710;9.392;2024-02-26T06:40:39;8.30;92.30
814;DHT22;389;48.710;9.392;2024-02-26T06:43:04;8.20;92.60
814;DHT22;389;48.710;9.392;2024-02-26T06:45:30;8.20;92.70
814;DHT22;389;48.710;9.392;2024-02-26T06:47:56;8.40;93.00
814;DHT22;389;48.710;9.392;2024-02-26T06:50:22;8.30;93.00
814;DHT22;389;48.710;9.392;2024-02-26T06:52:47;8.20;93.20
814;DHT22;389;48.710;9.392;2024-02-26T06:55:13;8.20;93.30
814;DHT22;389;48.710;9.392;2024-02-26T06:57:39;8.20;93.40
814;DHT22;389;48.710;9.392;2024-02-26T07:00:04;8.20;93.30
814;DHT22;389;48.710;9.392;2024-02-26T07:02:30;8.20;93.30
814;DHT22;389;48.710;9.392;2024-02-26T07:04:56;8.20;93.50
814;DHT22;389;48.710;9.392;2024-02-26T07:07:23;8.10;93.50
814;DHT22;389;48.710;9.392;2024-02-26T07:09:49;8.20;93.70
814;DHT22;389;48.710;9.392;2024-02-26T07:12:15;8.20;93.60
814;DHT22;389;48.710;9.392;2024-02-26T07:14:46;8.30;93.70
814;DHT22;389;48.710;9.392;2024-02-26T07:17:12;8.40;93.60
814;DHT22;389;48.710;9.392;2024-02-26T07:19:37;8.40;93.60
814;DHT22;389;48.710;9.392;2024-02-26T07:22:03;8.50;93.60
814;DHT22;389;48.710;9.392;2024-02-26T07:24:28;8.60;93.60
814;DHT22;389;48.710;9.392;2024-02-26T07:26:54;8.60;93.60
814;DHT22;389;48.710;9.392;2024-02-26T07:29:22;8.70;93.60
814;DHT22;389;48.710;9.392;2024-02-26T07:31:48;9.00;93.70
814;DHT22;389;48.710;9.392;2024-02-26T07:34:13;8.90;93.60
814;DHT22;389;48.710;9.392;2024-02-26T07:36:40;8.90;93.40
814;DHT22;389;48.710;9.392;2024-02-26T07:39:05;9.00;93.50
814;DHT22;389;48.710;9.392;2024-02-26T07:41:31;9.10;93.50
814;DHT22;389;48.710;9.392;2024-02-26T07:43:56;9.10;93.50
814;DHT22;389;48.710;9.392;2024-02-26T07:46:22;9.20;93.50
814;DHT22;389;48.710;9.392;2024-02-26T07:48:48;9.20;93.40
814;DHT22;389;48.710;9.392;2024-02-26T07:51:13;9.30;93.20
814;DHT22;389;48.710;9.392;2024-02-26T07:53:40;9.30;93.10
814;DHT22;389;48.710;9.392;2024-02-26T07:56:05;9.40;93.10
814;DHT22;389;48.710;9.392;2024-02-26T07:58:32;9.50;92.90
814;DHT22;389;48.710;9.392;2024-02-26T08:00:58;9.60;92.80
814;DHT22;389;48.710;9.392;2024-02-26T08:03:24;9.50;92.60
814;DHT22;389;48.710;9.392;2024-02-26T08:05:50;9.60;92.60
814;DHT22;389;48.710;9.392;2024-02-26T08:08:16;9.70;92.60
814;DHT22;389;48.710;9.392;2024-02-26T08:10:41;9.70;91.80
814;DHT22;389;48.710;9.392;2024-02-26T08:13:07;9.80;91.70
814;DHT22;389;48.710;9.392;2024-02-26T08:15:33;9.90;91.80
814;DHT22;389;48.710;9.392;2024-02-26T08:18:00;9.90;91.90
814;DHT22;389;48.710;9.392;2024-02-26T08:20:28;10.00;91.70
814;DHT22;389;48.710;9.392;2024-02-26T08:22:53;10.10;91.70
814;DHT22;389;48.710;9.392;2024-02-26T08:25:19;10.10;91.70
814;DHT22;389;48.710;9.392;2024-02-26T08:27:45;10.20;91.60
814;DHT22;389;48.710;9.392;2024-02-26T08:30:11;10.30;91.60
814;DHT22;389;48.710;9.392;2024-02-26T08:32:39;10.40;91.60
814;DHT22;389;48.710;9.392;2024-02-26T08:35:04;10.50;91.50
814;DHT22;389;48.710;9.392;2024-02-26T08:37:30;10.50;91.00
814;DHT22;389;48.710;9.392;2024-02-26T08:39:56;10.60;90.80
814;DHT22;389;48.710;9.392;2024-02-26T08:42:21;10.60;90.40
814;DHT22;389;48.710;9.392;2024-02-26T08:44:49;10.70;90.10
814;DHT22;389;48.710;9.392;2024-02-26T08:47:15;10.70;90.10
814;DHT22;389;48.710;9.392;2024-02-26T08:49:49;10.70;90.00
814;DHT22;389;48.710;9.392;2024-02-26T08:52:15;10.70;90.20
814;DHT22;389;48.710;9.392;2024-02-26T08:54:41;10.90;90.30
814;DHT22;389;48.710;9.392;2024-02-26T08:57:06;11.00;90.10
814;DHT22;389;48.710;9.392;2024-02-26T08:59:32;11.10;89.80
814;DHT22;389;48.710;9.392;2024-02-26T09:01:57;11.10;88.30
814;DHT22;389;48.710;9.392;2024-02-26T09:04:23;11.20;88.10
814;DHT22;389;48.710;9.392;2024-02-26T09:06:49;11.30;88.00
814;DHT22;389;48.710;9.392;2024-02-26T09:09:14;11.40;87.20
814;DHT22;389;48.710;9.392;2024-02-26T09:11:40;11.60;86.20
814;DHT22;389;48.710;9.392;2024-02-26T09:14:06;11.50;86.50
814;DHT22;389;48.710;9.392;2024-02-26T09:16:31;11.60;85.50
814;DHT22;389;48.710;9.392;2024-02-26T09:18:57;11.60;85.10
814;DHT22;389;48.710;9.392;2024-02-26T09:21:23;11.70;85.30
814;DHT22;389;48.710;9.392;2024-02-26T09:23:50;11.70;85.00
814;DHT22;389;48.710;9.392;2024-02-26T09:26:16;11.80;85.20
814;DHT22;389;48.710;9.392;2024-02-26T09:28:42;11.90;85.60
814;DHT22;389;48.710;9.392;2024-02-26T09:31:08;12.00;85.20
814;DHT22;389;48.710;9.392;2024-02-26T09:33:36;12.00;83.50
814;DHT22;389;48.710;9.392;2024-02-26T09:36:03;12.10;83.40
814;DHT22;389;48.710;9.392;2024-02-26T09:38:29;12.10;82.90
814;DHT22;389;48.710;9.392;2024-02-26T09:40:58;12.10;82.30
814;DHT22;389;48.710;9.392;2024-02-26T09:43:25;12.10;82.30
814;DHT22;389;48.710;9.392;2024-02-26T09:45:54;12.20;82.30
814;DHT22;389;48.710;9.392;2024-02-26T09:48:22;12.20;83.20
814;DHT22;389;48.710;9.392;2024-02-26T09:50:49;12.10;84.10
814;DHT22;389;48.710;9.392;2024-02-26T09:53:15;12.10;84.70
814;DHT22;389;48.710;9.392;2024-02-26T09:55:42;12.10;85.80
814;DHT22;389;48.710;9.392;2024-02-26T09:58:08;12.10;85.50
814;DHT22;389;48.710;9.392;2024-02-26T10:00:37;12.10;86.50
814;DHT22;389;48.710;9.392;2024-02-26T10:03:09;12.10;86.00
814;DHT22;389;48.710;9.392;2024-02-26T10:05:38;12.10;86.60
814;DHT22;389;48.710;9.392;2024-02-26T10:08:06;12.20;86.50
814;DHT22;389;48.710;9.392;2024-02-26T10:10:33;12.30;87.40
814;DHT22;389;48.710;9.392;2024-02-26T10:13:00;12.40;86.00
814;DHT22;389;48.710;9.392;2024-02-26T10:15:26;12.60;84.60
814;DHT22;389;48.710;9.392;2024-02-26T10:17:52;12.80;85.40
814;DHT22;389;48.710;9.392;2024-02-26T10:20:19;13.00;85.50
814;DHT22;389;48.710;9.392;2024-02-26T10:22:47;13.20;84.30
814;DHT22;389;48.710;9.392;2024-02-26T10:25:13;13.40;83.90
814;DHT22;389;48.710;9.392;2024-02-26T10:27:41;13.50;82.30
814;DHT22;389;48.710;9.392;2024-02-26T10:30:28;13.70;81.60
814;DHT22;389;48.710;9.392;2024-02-26T10:32:54;13.80;81.10
814;DHT22;389;48.710;9.392;2024-02-26T10:35:19;14.00;79.40
814;DHT22;389;48.710;9.392;2024-02-26T10:37:49;14.10;80.30
814;DHT22;389;48.710;9.392;2024-02-26T10:40:15;14.30;77.50
814;DHT22;389;48.710;9.392;2024-02-26T10:42:42;14.30;76.50
814;DHT22;389;48.710;9.392;2024-02-26T10:45:09;14.40;76.30
814;DHT22;389;48.710;9.392;2024-02-26T10:47:35;14.40;77.10
814;DHT22;389;48.710;9.392;2024-02-26T10:50:05;14.50;76.80
814;DHT22;389;48.710;9.392;2024-02-26T10:52:33;14.60;76.30
814;DHT22;389;48.710;9.392;2024-02-26T10:55:04;14.60;75.80
814;DHT22;389;48.710;9.392;2024-02-26T10:57:40;14.70;75.20
814;DHT22;389;48.710;9.392;2024-02-26T11:00:06;14.70;75.40
814;DHT22;389;48.710;9.392;2024-02-26T11:02:33;14.60;74.70
814;DHT22;389;48.710;9.392;2024-02-26T11:05:02;14.70;74.20
814;DHT22;389;48.710;9.392;2024-02-26T11:07:30;14.70;74.30
814;DHT22;389;48.710;9.392;2024-02-26T11:09:57;14.80;73.80
814;DHT22;389;48.710;9.392;2024-02-26T11:12:24;14.80;74.00
814;DHT22;389;48.710;9.392;2024-02-26T11:14:50;15.00;74.40
814;DHT22;389;48.710;9.392;2024-02-26T11:17:27;15.10;73.20
814;DHT22;389;48.710;9.392;2024-02-26T11:19:56;15.20;73.00
814;DHT22;389;48.710;9.392;2024-02-26T11:22:24;15.20;71.30
814;DHT22;389;48.710;9.392;2024-02-26T11:24:55;15.30;71.70
814;DHT22;389;48.710;9.392;2024-02-26T11:27:32;15.40;71.70
814;DHT22;389;48.710;9.392;2024-02-26T11:30:00;15.50;70.30
814;DHT22;389;48.710;9.392;2024-02-26T11:32:27;15.60;70.50
814;DHT22;389;48.710;9.392;2024-02-26T11:34:55;15.60;69.30
814;DHT22;389;48.710;9.392;2024-02-26T11:37:22;15.80;69.70
814;DHT22;389;48.710;9.392;2024-02-26T11:39:48;15.80;69.20
814;DHT22;389;48.710;9.392;2024-02-26T11:42:17;15.80;68.60
814;DHT22;389;48.710;9.392;2024-02-26T11:44:42;15.90;69.00
814;DHT22;389;48.710;9.392;2024-02-26T11:47:12;16.10;68.50
814;DHT22;389;48.710;9.392;2024-02-26T11:49:38;16.30;68.60
814;DHT22;389;48.710;9.392;2024-02-26T11:52:08;16.50;68.60
814;DHT22;389;48.710;9.392;2024-02-26T11:54:51;16.70;68.20
814;DHT22;389;48.710;9.392;2024-02-26T11:57:25;17.00;68.10
814;DHT22;389;48.710;9.392;2024-02-26T11:59:55;17.10;67.20
814;DHT22;389;48.710;9.392;2024-02-26T12:05:11;17.40;66.00
814;DHT22;389;48.710;9.392;2024-02-26T12:07:46;17.50;65.40
814;DHT22;389;48.710;9.392;2024-02-26T12:12:41;17.50;66.00
814;DHT22;389;48.710;9.392;2024-02-26T12:15:08;17.70;66.20
814;DHT22;389;48.710;9.392;2024-02-26T12:17:34;17.70;65.20
814;DHT22;389;48.710;9.392;2024-02-26T12:20:10;17.70;64.50
814;DHT22;389;48.710;9.392;2024-02-26T12:22:39;17.90;64.80
814;DHT22;389;48.710;9.392;2024-02-26T12:25:05;18.00;64.50
814;DHT22;389;48.710;9.392;2024-02-26T12:27:31;18.10;63.50
814;DHT22;389;48.710;9.392;2024-02-26T12:29:56;18.10;62.50
814;DHT22;389;48.710;9.392;2024-02-26T12:32:23;18.10;61.90
814;DHT22;389;48.710;9.392;2024-02-26T12:34:49;18.20;61.90
814;DHT22;389;48.710;9.392;2024-02-26T12:37:16;18.10;61.00
814;DHT22;389;48.710;9.392;2024-02-26T12:39:41;18.10;61.00
814;DHT22;389;48.710;9.392;2024-02-26T12:42:08;17.90;59.90
814;DHT22;389;48.710;9.392;2024-02-26T12:44:34;17.80;60.20
814;DHT22;389;48.710;9.392;2024-02-26T12:47:02;17.80;60.70
814;DHT22;389;48.710;9.392;2024-02-26T12:49:28;17.80;61.10
814;DHT22;389;48.710;9.392;2024-02-26T12:51:54;17.80;61.20
814;DHT22;389;48.710;9.392;2024-02-26T12:54:29;17.80;60.00
814;DHT22;389;48.710;9.392;2024-02-26T12:56:57;17.70;58.90
814;DHT22;389;48.710;9.392;2024-02-26T12:59:23;17.70;58.90
814;DHT22;389;48.710;9.392;2024-02-26T13:01:49;17.70;60.10
814;DHT22;389;48.710;9.392;2024-02-26T13:04:15;17.80;60.10
814;DHT22;389;48.710;9.392;2024-02-26T13:06:42;17.90;59.40
814;DHT22;389;48.710;9.392;2024-02-26T13:09:07;18.00;59.30
814;DHT22;389;48.710;9.392;2024-02-26T13:11:34;18.00;59.40
814;DHT22;389;48.710;9.392;2024-02-26T13:14:00;18.10;59.30
814;DHT22;389;48.710;9.392;2024-02-26T13:16:25;18.10;59.30
814;DHT22;389;48.710;9.392;2024-02-26T13:18:51;18.00;59.20
814;DHT22;389;48.710;9.392;2024-02-26T13:21:18;18.00;59.30
814;DHT22;389;48.710;9.392;2024-02-26T13:23:52;18.00;59.60
814;DHT22;389;48.710;9.392;2024-02-26T13:26:22;18.00;60.20
814;DHT22;389;48.710;9.392;2024-02-26T13:29:00;18.00;59.80
814;DHT22;389;48.710;9.392;2024-02-26T13:31:26;18.00;59.50
814;DHT22;389;48.710;9.392;2024-02-26T13:33:51;18.00;59.70
814;DHT22;389;48.710;9.392;2024-02-26T13:36:21;18.00;59.80
814;DHT22;389;48.710;9.392;2024-02-26T13:38:54;18.00;59.80
814;DHT22;389;48.710;9.392;2024-02-26T13:41:20;17.80;60.20
814;DHT22;389;48.710;9.392;2024-02-26T13:43:46;17.70;60.80
814;DHT22;389;48.710;9.392;2024-02-26T13:46:12;17.70;61.20
814;DHT22;389;48.710;9.392;2024-02-26T13:48:39;17.70;61.40
814;DHT22;389;48.710;9.392;2024-02-26T13:51:04;17.70;61.20
814;DHT22;389;48.710;9.392;2024-02-26T13:53:30;17.80;61.60
814;DHT22;389;48.710;9.392;2024-02-26T13:55:56;17.80;60.80
814;DHT22;389;48.710;9.392;2024-02-26T13:58:24;17.80;61.20
814;DHT22;389;48.710;9.392;2024-02-26T14:00:49;17.80;61.60
814;DHT22;389;48.710;9.392;2024-02-26T14:03:15;18.00;61.50
814;DHT22;389;48.710;9.392;2024-02-26T14:05:41;17.90;61.20
814;DHT22;389;48.710;9.392;2024-02-26T14:08:07;18.00;61.10
814;DHT22;389;48.710;9.392;2024-02-26T14:10:33;17.90;60.60
814;DHT22;389;48.710;9.392;2024-02-26T14:12:59;18.00;60.70
814;DHT22;389;48.710;9.392;2024-02-26T14:15:25;18.00;61.20
814;DHT22;389;48.710;9.392;2024-02-26T14:17:52;18.00;59.70
814;DHT22;389;48.710;9.392;2024-02-26T14:20:22;17.80;59.50
814;DHT22;389;48.710;9.392;2024-02-26T14:22:52;17.80;60.00
814;DHT22;389;48.710;9.392;2024-02-26T14:25:19;17.70;60.80
814;DHT22;389;48.710;9.392;2024-02-26T14:27:46;17.60;60.80
814;DHT22;389;48.710;9.392;2024-02-26T14:30:12;17.50;60.90
814;DHT22;389;48.710;9.392;2024-02-26T14:32:38;17.40;61.30
814;DHT22;389;48.710;9.392;2024-02-26T14:35:08;17.30;61.70
814;DHT22;389;48.710;9.392;2024-02-26T14:37:37;17.20;60.70
814;DHT22;389;48.710;9.392;2024-02-26T14:40:03;17.10;61.10
814;DHT22;389;48.710;9.392;2024-02-26T14:42:29;17.00;61.50
814;DHT22;389;48.710;9.392;2024-02-26T14:44:55;16.90;61.30
814;DHT22;389;48.710;9.392;2024-02-26T14:47:20;16.80;62.00
814;DHT22;389;48.710;9.392;2024-02-26T14:49:46;16.70;62.10
814;DHT22;389;48.710;9.392;2024-02-26T14:52:14;16.60;62.20
814;DHT22;389;48.710;9.392;2024-02-26T14:54:40;16.40;61.70
814;DHT22;389;48.710;9.392;2024-02-26T14:57:06;16.40;63.00
814;DHT22;389;48.710;9.392;2024-02-26T14:59:34;16.30;63.70
814;DHT22;389;48.710;9.392;2024-02-26T15:02:02;16.20;63.00
814;DHT22;389;48.710;9.392;2024-02-26T15:04:27;16.20;63.20
814;DHT22;389;48.710;9.392;2024-02-26T15:06:53;16.10;63.50
814;DHT22;389;48.710;9.392;2024-02-26T15:09:19;16.10;63.40
814;DHT22;389;48.710;9.392;2024-02-26T15:11:44;16.00;64.10
814;DHT22;389;48.710;9.392;2024-02-26T15:14:10;16.00;64.50
814;DHT22;389;48.710;9.392;2024-02-26T15:16:36;16.00;65.20
814;DHT22;389;48.710;9.392;2024-02-26T15:19:02;16.00;65.80
814;DHT22;389;48.710;9.392;2024-02-26T15:21:29;16.00;65.80
814;DHT22;389;48.710;9.392;2024-02-26T15:23:55;16.00;66.00
814;DHT22;389;48.710;9.392;2024-02-26T15:26:20;16.00;67.10
814;DHT22;389;48.710;9.392;2024-02-26T15:28:47;15.90;66.30
814;DHT22;389;48.710;9.392;2024-02-26T15:31:15;15.90;66.60
814;DHT22;389;48.710;9.392;2024-02-26T15:33:41;15.80;66.80
814;DHT22;389;48.710;9.392;2024-02-26T15:36:08;15.80;67.40
814;DHT22;389;48.710;9.392;2024-02-26T15:38:37;15.70;67.80
814;DHT22;389;48.710;9.392;2024-02-26T15:41:10;15.70;68.70
814;DHT22;389;48.710;9.392;2024-02-26T15:43:36;15.60;69.20
814;DHT22;389;48.710;9.392;2024-02-26T15:46:02;15.50;69.30
814;DHT22;389;48.710;9.392;2024-02-26T15:48:28;15.40;69.80
814;DHT22;389;48.710;9.392;2024-02-26T15:50:54;15.40;70.40
814;DHT22;389;48.710;9.392;2024-02-26T15:53:20;15.30;70.30
814;DHT22;389;48.710;9.392;2024-02-26T15:55:45;15.10;70.50
814;DHT22;389;48.710;9.392;2024-02-26T15:58:11;15.00;71.20
814;DHT22;389;48.710;9.392;2024-02-26T16:00:39;15.00;71.70
814;DHT22;389;48.710;9.392;2024-02-26T16:03:06;15.00;71.70
814;DHT22;389;48.710;9.392;2024-02-26T16:05:31;15.00;71.80
814;DHT22;389;48.710;9.392;2024-02-26T16:07:59;14.80;71.90
814;DHT22;389;48.710;9.392;2024-02-26T16:10:26;14.80;71.80
814;DHT22;389;48.710;9.392;2024-02-26T16:12:57;14.70;71.80
814;DHT22;389;48.710;9.392;2024-02-26T16:15:25;14.60;71.60
814;DHT22;389;48.710;9.392;2024-02-26T16:17:52;14.60;72.20
814;DHT22;389;48.710;9.392;2024-02-26T16:20:21;14.50;72.60
814;DHT22;389;48.710;9.392;2024-02-26T16:22:47;14.50;72.70
814;DHT22;389;48.710;9.392;2024-02-26T16:25:14;14.40;72.70
814;DHT22;389;48.710;9.392;2024-02-26T16:27:39;14.30;72.70
814;DHT22;389;48.710;9.392;2024-02-26T16:30:09;14.20;72.50
814;DHT22;389;48.710;9.392;2024-02-26T16:32:35;14.10;72.90
814;DHT22;389;48.710;9.392;2024-02-26T16:35:05;14.10;73.30
814;DHT22;389;48.710;9.392;2024-02-26T16:37:31;14.10;73.80
814;DHT22;389;48.710;9.392;2024-02-26T16:39:58;14.10;73.50
814;DHT22;389;48.710;9.392;2024-02-26T16:42:25;14.00;73.60
814;DHT22;389;48.710;9.392;2024-02-26T16:44:51;13.90;73.50